createdAt,value
2017-06-11T00:01:19.603Z,13.93
2017-06-11T00:03:47.111Z,12.80
2017-06-11T00:06:14.652Z,13.00
2017-06-11T00:08:42.170Z,16.00
2017-06-11T00:11:09.674Z,18.62
2017-06-11T00:13:37.968Z,11.98
2017-06-11T00:16:05.511Z,14.60
2017-06-11T00:18:33.060Z,17.12
2017-06-11T00:21:00.560Z,14.32
2017-06-11T00:23:28.112Z,18.75
2017-06-11T00:25:55.650Z,17.60
2017-06-11T00:28:23.942Z,15.45
2017-06-11T00:30:51.461Z,21.42
2017-06-11T00:33:18.989Z,15.13
2017-06-11T00:35:46.515Z,13.57
2017-06-11T00:38:14.062Z,13.35
2017-06-11T00:40:41.580Z,14.05
2017-06-11T00:43:09.237Z,14.85
2017-06-11T00:45:36.787Z,12.93
2017-06-11T00:48:04.299Z,19.23
2017-06-11T00:50:31.839Z,14.63
2017-06-11T00:52:59.370Z,14.50
2017-06-11T00:55:26.896Z,17.27
2017-06-11T00:57:54.451Z,18.25
2017-06-11T01:00:22.003Z,14.93
2017-06-11T01:02:49.528Z,18.00
2017-06-11T01:05:17.051Z,13.18
2017-06-11T01:07:44.602Z,12.85
2017-06-11T01:10:12.111Z,14.95
2017-06-11T01:12:39.609Z,15.40
2017-06-11T01:15:07.944Z,18.65
2017-06-11T01:17:35.586Z,16.25
2017-06-11T01:20:03.112Z,17.27
2017-06-11T01:22:30.622Z,16.60
2017-06-11T01:24:58.141Z,22.90
2017-06-11T01:27:25.643Z,18.55
2017-06-11T01:29:53.151Z,21.23
2017-06-11T01:32:20.675Z,17.25
2017-06-11T01:34:48.201Z,18.60
2017-06-11T01:37:15.750Z,18.05
2017-06-11T01:39:43.279Z,17.10
2017-06-11T01:42:11.555Z,19.00
2017-06-11T01:44:39.066Z,17.55
2017-06-11T01:47:06.592Z,17.37
2017-06-11T01:49:34.106Z,19.35
2017-06-11T01:52:01.632Z,22.02
2017-06-11T01:54:29.130Z,18.15
2017-06-11T01:56:56.671Z,17.17
2017-06-11T01:59:24.166Z,17.08
2017-06-11T02:01:52.446Z,15.90
2017-06-11T02:04:20.749Z,17.02
2017-06-11T02:06:48.274Z,18.20
2017-06-11T02:09:15.782Z,20.37
2017-06-11T02:11:43.314Z,18.08
2017-06-11T02:14:10.845Z,20.62
2017-06-11T02:16:38.376Z,18.00
2017-06-11T02:19:05.911Z,18.45
2017-06-11T02:21:33.408Z,15.80
2017-06-11T02:24:00.932Z,18.45
2017-06-11T02:26:28.491Z,17.35
2017-06-11T02:28:56.013Z,18.40
2017-06-11T02:31:23.531Z,18.58
2017-06-11T02:33:51.048Z,17.25
2017-06-11T02:36:18.550Z,18.40
2017-06-11T02:38:46.070Z,25.92
2017-06-11T02:41:13.609Z,22.30
2017-06-11T02:43:41.881Z,19.40
2017-06-11T02:46:10.168Z,18.40
2017-06-11T02:48:38.528Z,17.85
2017-06-11T02:51:06.032Z,22.25
2017-06-11T02:53:33.534Z,18.83
2017-06-11T02:56:01.056Z,18.35
2017-06-11T02:58:28.552Z,19.70
2017-06-11T03:00:56.119Z,22.00
2017-06-11T03:03:23.679Z,20.17
2017-06-11T03:05:51.177Z,20.17
2017-06-11T03:08:18.844Z,21.67
2017-06-11T03:10:46.362Z,17.83
2017-06-11T03:13:13.921Z,20.65
2017-06-11T03:15:41.437Z,20.88
2017-06-11T03:18:08.962Z,18.87
2017-06-11T03:20:37.278Z,19.87
2017-06-11T03:23:04.909Z,18.15
2017-06-11T03:25:32.412Z,16.85
2017-06-11T03:28:00.131Z,15.73
2017-06-11T03:30:27.687Z,15.65
2017-06-11T03:32:55.316Z,14.65
2017-06-11T03:35:22.835Z,15.00
2017-06-11T03:37:50.357Z,15.82
2017-06-11T03:40:17.924Z,17.58
2017-06-11T03:42:46.212Z,14.87
2017-06-11T03:45:13.745Z,14.73
2017-06-11T03:47:41.244Z,13.18
2017-06-11T03:50:08.779Z,12.35
2017-06-11T03:52:37.050Z,14.75
2017-06-11T03:55:05.306Z,14.98
2017-06-11T03:57:32.821Z,12.98
2017-06-11T04:00:00.362Z,16.05
2017-06-11T04:02:28.175Z,11.75
2017-06-11T04:04:55.670Z,13.73
2017-06-11T04:07:23.187Z,14.30
2017-06-11T04:09:50.706Z,14.52
2017-06-11T04:12:18.218Z,11.63
2017-06-11T04:14:45.727Z,12.90
2017-06-11T04:17:13.243Z,13.18
2017-06-11T04:19:40.741Z,13.55
2017-06-11T04:22:08.263Z,12.82
2017-06-11T04:24:35.828Z,13.30
2017-06-11T04:27:03.344Z,11.85
2017-06-11T04:29:30.863Z,12.55
2017-06-11T04:31:59.311Z,14.27
2017-06-11T04:34:26.807Z,12.07
2017-06-11T04:36:54.327Z,11.25
2017-06-11T04:39:21.840Z,8.95
2017-06-11T04:41:49.352Z,7.72
2017-06-11T04:44:16.852Z,10.93
2017-06-11T04:46:44.371Z,8.40
2017-06-11T04:49:11.893Z,7.95
2017-06-11T04:51:39.437Z,8.73
2017-06-11T04:54:06.946Z,9.38
2017-06-11T04:56:34.556Z,8.48
2017-06-11T04:59:02.071Z,10.18
2017-06-11T05:01:29.559Z,7.62
2017-06-11T05:03:57.837Z,6.97
2017-06-11T05:06:26.179Z,7.37
2017-06-11T05:08:53.680Z,8.95
2017-06-11T05:11:21.223Z,6.22
2017-06-11T05:13:48.775Z,7.55
2017-06-11T05:16:16.263Z,7.60
2017-06-11T05:18:43.761Z,8.32
2017-06-11T05:21:11.264Z,8.70
2017-06-11T05:23:39.676Z,6.70
2017-06-11T05:26:07.183Z,4.60
2017-06-11T05:28:34.699Z,5.57
2017-06-11T05:31:02.261Z,5.15
2017-06-11T05:33:29.775Z,7.97
2017-06-11T05:35:57.289Z,7.87
2017-06-11T05:38:24.806Z,5.22
2017-06-11T05:40:52.328Z,10.18
2017-06-11T05:43:19.815Z,5.28
2017-06-11T05:45:48.109Z,5.65
2017-06-11T05:48:15.619Z,5.00
2017-06-11T05:50:43.149Z,5.60
2017-06-11T05:53:10.658Z,11.07
2017-06-11T05:55:38.168Z,5.40
2017-06-11T05:58:05.792Z,5.70
2017-06-11T06:00:34.075Z,5.35
2017-06-11T06:03:02.347Z,4.30
2017-06-11T06:05:30.635Z,4.65
2017-06-11T06:07:58.939Z,5.28
2017-06-11T06:10:26.442Z,5.37
2017-06-11T06:12:53.955Z,4.40
2017-06-11T06:15:21.445Z,7.10
2017-06-11T06:17:48.949Z,5.60
2017-06-11T06:20:16.471Z,9.57
2017-06-11T06:22:43.955Z,7.85
2017-06-11T06:25:11.477Z,6.10
2017-06-11T06:27:38.974Z,5.70
2017-06-11T06:30:07.244Z,5.70
2017-06-11T06:32:35.534Z,7.65
2017-06-11T06:35:03.813Z,7.45
2017-06-11T06:37:31.323Z,4.65
2017-06-11T06:39:58.823Z,8.00
2017-06-11T06:42:26.358Z,6.22
2017-06-11T06:44:53.858Z,7.57
2017-06-11T06:47:21.354Z,6.25
2017-06-11T06:49:48.863Z,6.20
2017-06-11T06:52:16.363Z,8.32
2017-06-11T06:54:43.850Z,7.50
2017-06-11T06:57:11.375Z,5.32
2017-06-11T06:59:38.889Z,8.52
2017-06-11T07:02:07.548Z,6.65
2017-06-11T07:04:35.089Z,4.28
2017-06-11T07:07:02.621Z,3.78
2017-06-11T07:09:30.139Z,5.00
2017-06-11T07:11:57.638Z,3.45
2017-06-11T07:14:25.149Z,3.37
2017-06-11T07:16:52.654Z,4.05
2017-06-11T07:19:20.421Z,4.43
2017-06-11T07:21:47.987Z,6.68
2017-06-11T07:24:15.490Z,5.15
2017-06-11T07:26:42.992Z,4.35
2017-06-11T07:29:10.502Z,5.15
2017-06-11T07:31:38.012Z,7.45
2017-06-11T07:34:05.531Z,7.93
2017-06-11T07:36:33.029Z,4.87
2017-06-11T07:39:00.522Z,5.55
2017-06-11T07:41:28.125Z,2.80
2017-06-11T07:43:55.755Z,3.72
2017-06-11T07:46:23.250Z,5.05
2017-06-11T07:48:50.761Z,5.53
2017-06-11T07:51:18.586Z,4.07
2017-06-11T07:53:46.086Z,4.90
2017-06-11T07:56:13.592Z,3.95
2017-06-11T07:58:41.874Z,8.30
2017-06-11T08:01:11.402Z,4.53
2017-06-11T08:03:38.906Z,6.10
2017-06-11T08:06:06.643Z,4.00
2017-06-11T08:08:34.155Z,3.35
2017-06-11T08:11:01.647Z,3.67
2017-06-11T08:13:29.875Z,6.90
2017-06-11T08:15:57.496Z,3.30
2017-06-11T08:18:25.367Z,4.55
2017-06-11T08:20:53.031Z,5.45
2017-06-11T08:23:20.542Z,4.85
2017-06-11T08:25:48.209Z,3.25
2017-06-11T08:28:15.744Z,5.47
2017-06-11T08:30:43.273Z,4.35
2017-06-11T08:33:10.819Z,3.50
2017-06-11T08:35:38.403Z,4.10
2017-06-11T08:38:05.955Z,5.05
2017-06-11T08:40:33.479Z,5.18
2017-06-11T08:43:00.980Z,6.18
2017-06-11T08:45:28.482Z,3.35
2017-06-11T08:47:57.696Z,2.92
2017-06-11T08:50:25.703Z,2.55
2017-06-11T08:52:53.219Z,2.22
2017-06-11T08:55:20.758Z,3.47
2017-06-11T08:57:49.057Z,3.97
2017-06-11T09:00:17.383Z,5.40
2017-06-11T09:02:47.646Z,3.45
2017-06-11T09:05:16.026Z,4.72
2017-06-11T09:07:43.852Z,2.55
2017-06-11T09:10:11.484Z,4.53
2017-06-11T09:12:39.038Z,2.85
2017-06-11T09:15:06.642Z,3.05
2017-06-11T09:17:34.142Z,3.50
2017-06-11T09:20:01.672Z,2.22
2017-06-11T09:22:29.223Z,4.45
2017-06-11T09:24:56.798Z,3.28
2017-06-11T09:27:24.297Z,3.60
2017-06-11T09:29:51.807Z,3.95
2017-06-11T09:32:19.468Z,6.60
2017-06-11T09:34:46.981Z,3.22
2017-06-11T09:37:14.484Z,3.08
2017-06-11T09:39:42.012Z,2.17
2017-06-11T09:42:09.577Z,4.43
2017-06-11T09:44:37.242Z,4.22
2017-06-11T09:47:04.757Z,4.30
2017-06-11T09:49:33.382Z,2.85
2017-06-11T09:52:00.914Z,5.70
2017-06-11T09:54:29.196Z,3.90
2017-06-11T09:56:57.563Z,3.05
2017-06-11T09:59:25.132Z,3.78
2017-06-11T10:01:53.393Z,4.47
2017-06-11T10:04:21.731Z,2.83
2017-06-11T10:06:49.238Z,3.50
2017-06-11T10:09:16.760Z,3.95
2017-06-11T10:11:44.320Z,2.85
2017-06-11T10:14:11.974Z,2.75
2017-06-11T10:16:39.483Z,4.45
2017-06-11T10:19:06.987Z,2.42
2017-06-11T10:21:34.503Z,4.90
2017-06-11T10:24:04.429Z,5.10
2017-06-11T10:26:31.934Z,4.03
2017-06-11T10:28:59.440Z,2.05
2017-06-11T10:31:26.976Z,2.62
2017-06-11T10:33:54.471Z,2.00
2017-06-11T10:36:21.987Z,2.47
2017-06-11T10:38:49.483Z,2.03
2017-06-11T10:41:17.020Z,4.05
2017-06-11T10:43:45.322Z,2.42
2017-06-11T10:46:12.847Z,3.37
2017-06-11T10:48:40.359Z,2.80
2017-06-11T10:51:07.887Z,3.22
2017-06-11T10:53:36.210Z,2.13
2017-06-11T10:56:03.735Z,1.70
2017-06-11T10:58:31.258Z,4.13
2017-06-11T11:00:58.774Z,4.20
2017-06-11T11:03:26.547Z,2.00
2017-06-11T11:05:54.053Z,1.60
2017-06-11T11:08:22.349Z,1.70
2017-06-11T11:10:49.870Z,1.50
2017-06-11T11:13:17.370Z,2.10
2017-06-11T11:15:44.876Z,3.83
2017-06-11T11:18:12.381Z,4.47
2017-06-11T11:20:40.668Z,1.50
2017-06-11T11:23:08.182Z,1.90
2017-06-11T11:25:35.819Z,1.80
2017-06-11T11:28:03.330Z,1.90
2017-06-11T11:30:30.853Z,1.67
2017-06-11T11:32:58.369Z,2.07
2017-06-11T11:35:25.887Z,3.73
2017-06-11T11:37:53.435Z,1.53
2017-06-11T11:40:20.975Z,1.43
2017-06-11T11:42:48.494Z,2.17
2017-06-11T11:45:16.002Z,2.40
2017-06-11T11:47:43.503Z,2.23
2017-06-11T11:50:10.995Z,1.50
2017-06-11T11:52:38.527Z,4.77
2017-06-11T11:55:06.062Z,1.63
2017-06-11T11:57:33.559Z,3.50
2017-06-11T12:00:01.066Z,2.33
2017-06-11T12:02:28.577Z,3.07
2017-06-11T12:04:56.089Z,2.77
2017-06-11T12:07:23.592Z,2.20
2017-06-11T12:09:51.090Z,1.60
2017-06-11T12:12:18.632Z,1.17
2017-06-11T12:14:46.137Z,2.90
2017-06-11T12:17:13.640Z,1.40
2017-06-11T12:19:41.161Z,2.03
2017-06-11T12:22:08.874Z,1.87
2017-06-11T12:24:36.422Z,3.03
2017-06-11T12:27:03.948Z,3.53
2017-06-11T12:29:31.494Z,1.93
2017-06-11T12:31:59.031Z,1.87
2017-06-11T12:34:26.558Z,1.83
2017-06-11T12:36:54.058Z,1.80
2017-06-11T12:39:21.598Z,1.30
2017-06-11T12:41:49.106Z,3.33
2017-06-11T12:44:16.673Z,1.47
2017-06-11T12:46:44.253Z,3.47
2017-06-11T12:49:11.847Z,1.63
2017-06-11T12:51:39.429Z,1.47
2017-06-11T12:54:07.013Z,1.73
2017-06-11T12:56:34.534Z,2.17
2017-06-11T12:59:02.090Z,3.20
2017-06-11T13:01:29.670Z,1.40
2017-06-11T13:03:57.201Z,3.25
2017-06-11T13:06:25.159Z,1.50
2017-06-11T13:08:52.716Z,1.73
2017-06-11T13:11:20.242Z,1.10
2017-06-11T13:13:47.786Z,1.90
2017-06-11T13:16:15.365Z,2.00
2017-06-11T13:18:43.203Z,4.37
2017-06-11T13:21:10.767Z,1.80
2017-06-11T13:23:38.309Z,2.83
2017-06-11T13:26:05.865Z,3.92
2017-06-11T13:28:33.430Z,1.30
2017-06-11T13:31:00.976Z,2.35
2017-06-11T13:33:28.611Z,2.60
2017-06-11T13:35:56.149Z,2.33
2017-06-11T13:38:23.676Z,1.77
2017-06-11T13:40:51.183Z,2.60
2017-06-11T13:43:18.698Z,3.33
2017-06-11T13:45:46.221Z,2.30
2017-06-11T13:48:13.756Z,4.28
2017-06-11T13:50:41.266Z,2.97
2017-06-11T13:53:09.116Z,4.00
2017-06-11T13:55:36.647Z,2.62
2017-06-11T13:58:04.194Z,4.60
2017-06-11T14:00:31.738Z,2.50
2017-06-11T14:02:59.268Z,4.60
2017-06-11T14:05:26.799Z,2.17
2017-06-11T14:07:54.353Z,1.85
2017-06-11T14:10:21.870Z,1.48
2017-06-11T14:12:49.372Z,1.60
2017-06-11T14:15:16.887Z,1.50
2017-06-11T14:17:44.407Z,3.50
2017-06-11T14:20:11.907Z,2.97
2017-06-11T14:22:39.426Z,1.60
2017-06-11T14:25:06.942Z,1.65
2017-06-11T14:27:38.110Z,1.70
2017-06-11T14:30:05.616Z,2.50
2017-06-11T14:32:33.147Z,1.77
2017-06-11T14:35:00.652Z,2.28
2017-06-11T14:37:28.161Z,2.67
2017-06-11T14:39:55.818Z,3.00
2017-06-11T14:42:23.344Z,1.60
2017-06-11T14:44:50.892Z,3.10
2017-06-11T14:47:18.419Z,1.77
2017-06-11T14:49:47.665Z,2.22
2017-06-11T14:52:15.239Z,2.67
2017-06-11T14:54:42.754Z,1.30
2017-06-11T14:57:10.785Z,1.87
2017-06-11T14:59:38.321Z,2.10
2017-06-11T15:02:06.604Z,2.50
2017-06-11T15:04:35.084Z,1.80
2017-06-11T15:07:03.371Z,1.20
2017-06-11T15:09:30.891Z,2.10
2017-06-11T15:11:58.422Z,2.20
2017-06-11T15:14:25.932Z,2.80
2017-06-11T15:16:54.261Z,1.53
2017-06-11T15:19:21.770Z,2.67
2017-06-11T15:21:49.283Z,4.53
2017-06-11T15:24:16.791Z,3.07
2017-06-11T15:26:44.335Z,2.50
2017-06-11T15:29:11.855Z,3.57
2017-06-11T15:31:39.468Z,2.90
2017-06-11T15:34:06.970Z,2.03
2017-06-11T15:36:34.485Z,1.60
2017-06-11T15:39:02.775Z,3.00
2017-06-11T15:41:30.385Z,3.23
2017-06-11T15:43:57.881Z,3.37
2017-06-11T15:46:26.166Z,1.67
2017-06-11T15:48:54.434Z,2.10
2017-06-11T15:51:22.721Z,2.53
2017-06-11T15:53:50.987Z,2.70
2017-06-11T15:56:19.275Z,3.25
2017-06-11T15:58:47.589Z,1.70
2017-06-11T16:01:15.095Z,2.40
2017-06-11T16:03:42.614Z,3.30
2017-06-11T16:06:10.246Z,2.47
2017-06-11T16:08:37.746Z,4.80
2017-06-11T16:11:05.274Z,2.07
2017-06-11T16:13:32.792Z,5.18
2017-06-11T16:16:00.538Z,2.90
2017-06-11T16:18:28.040Z,2.80
2017-06-11T16:20:55.571Z,2.53
2017-06-11T16:23:23.090Z,2.65
2017-06-11T16:25:50.608Z,3.45
2017-06-11T16:28:18.891Z,1.67
2017-06-11T16:30:47.179Z,4.35
2017-06-11T16:33:14.700Z,2.78
2017-06-11T16:35:42.230Z,2.95
2017-06-11T16:38:09.752Z,2.15
2017-06-11T16:40:38.045Z,3.62
2017-06-11T16:43:05.553Z,2.40
2017-06-11T16:45:33.059Z,1.55
2017-06-11T16:48:00.575Z,1.87
2017-06-11T16:50:28.091Z,2.85
2017-06-11T16:52:55.600Z,3.10
2017-06-11T16:55:23.148Z,2.30
2017-06-11T16:57:50.682Z,2.17
2017-06-11T17:00:18.207Z,4.50
2017-06-11T17:02:45.832Z,5.22
2017-06-11T17:05:13.383Z,4.07
2017-06-11T17:07:40.976Z,3.85
2017-06-11T17:10:08.502Z,1.90
2017-06-11T17:12:36.031Z,4.45
2017-06-11T17:15:03.539Z,1.95
2017-06-11T17:17:31.184Z,1.98
2017-06-11T17:19:58.678Z,2.28
2017-06-11T17:22:26.174Z,3.33
2017-06-11T17:24:53.698Z,3.20
2017-06-11T17:27:22.042Z,2.35
2017-06-11T17:29:49.535Z,4.43
2017-06-11T17:32:17.046Z,3.80
2017-06-11T17:34:44.635Z,4.70
2017-06-11T17:37:12.206Z,1.62
2017-06-11T17:39:40.468Z,5.80
2017-06-11T17:42:08.021Z,5.65
2017-06-11T17:44:35.598Z,1.90
2017-06-11T17:47:03.275Z,3.87
2017-06-11T17:49:31.533Z,4.03
2017-06-11T17:51:59.920Z,2.70
2017-06-11T17:54:27.436Z,2.55
2017-06-11T17:56:54.976Z,4.00
2017-06-11T17:59:22.519Z,3.90
2017-06-11T18:01:50.049Z,2.50
2017-06-11T18:04:17.558Z,2.83
2017-06-11T18:06:45.113Z,2.65
2017-06-11T18:09:12.636Z,6.18
2017-06-11T18:11:40.174Z,3.10
2017-06-11T18:14:07.701Z,4.18
2017-06-11T18:16:35.637Z,2.60
2017-06-11T18:19:03.187Z,2.65
2017-06-11T18:21:30.697Z,5.47
2017-06-11T18:23:58.261Z,5.72
2017-06-11T18:26:25.785Z,3.70
2017-06-11T18:28:53.342Z,2.85
2017-06-11T18:31:21.630Z,3.50
2017-06-11T18:33:49.221Z,4.87
2017-06-11T18:36:16.869Z,4.37
2017-06-11T18:38:44.697Z,4.00
2017-06-11T18:41:12.245Z,3.08
2017-06-11T18:43:39.760Z,3.08
2017-06-11T18:46:07.318Z,4.40
2017-06-11T18:48:34.880Z,4.10
2017-06-11T18:51:02.419Z,4.87
2017-06-11T18:53:29.944Z,3.40
2017-06-11T18:55:57.508Z,4.97
2017-06-11T18:58:25.066Z,4.45
2017-06-11T19:00:52.613Z,6.00
2017-06-11T19:03:20.115Z,4.37
2017-06-11T19:05:47.717Z,3.30
2017-06-11T19:08:15.269Z,3.78
2017-06-11T19:10:43.796Z,3.05
2017-06-11T19:13:11.364Z,3.05
2017-06-11T19:15:38.923Z,2.95
2017-06-11T19:18:07.306Z,4.00
2017-06-11T19:20:34.837Z,5.45
2017-06-11T19:23:02.367Z,9.15
2017-06-11T19:25:30.164Z,3.62
2017-06-11T19:27:58.494Z,4.18
2017-06-11T19:30:26.040Z,3.65
2017-06-11T19:32:53.558Z,4.05
2017-06-11T19:35:21.899Z,5.37
2017-06-11T19:37:49.451Z,3.87
2017-06-11T19:40:17.076Z,7.05
2017-06-11T19:42:44.817Z,4.25
2017-06-11T19:45:12.360Z,4.55
2017-06-11T19:47:39.944Z,4.97
2017-06-11T19:50:08.596Z,5.07
2017-06-11T19:52:36.314Z,5.45
2017-06-11T19:55:04.639Z,3.92
2017-06-11T19:57:32.230Z,5.22
2017-06-11T19:59:59.726Z,5.65
2017-06-11T20:02:27.270Z,5.87
2017-06-11T20:04:54.804Z,7.07
2017-06-11T20:07:22.369Z,3.75
2017-06-11T20:09:49.909Z,7.85
2017-06-11T20:12:17.432Z,3.85
2017-06-11T20:14:45.090Z,4.22
2017-06-11T20:17:12.927Z,7.43
2017-06-11T20:19:41.353Z,7.43
2017-06-11T20:22:08.932Z,4.80
2017-06-11T20:24:36.505Z,4.70
2017-06-11T20:27:04.099Z,4.22
2017-06-11T20:29:31.746Z,6.82
2017-06-11T20:31:59.341Z,4.60
2017-06-11T20:34:27.872Z,4.07
2017-06-11T20:36:55.401Z,6.43
2017-06-11T20:39:22.899Z,3.95
2017-06-11T20:41:50.933Z,3.28
2017-06-11T20:44:19.401Z,4.00
2017-06-11T20:46:46.925Z,4.35
2017-06-11T20:49:14.434Z,5.03
2017-06-11T20:51:42.479Z,3.33
2017-06-11T20:54:10.770Z,3.35
2017-06-11T20:56:38.289Z,4.57
2017-06-11T20:59:05.775Z,4.68
2017-06-11T21:01:33.447Z,4.80
2017-06-11T21:04:00.986Z,8.75
2017-06-11T21:06:29.282Z,8.02
2017-06-11T21:08:56.862Z,7.87
2017-06-11T21:11:24.413Z,5.53
2017-06-11T21:13:51.961Z,6.75
2017-06-11T21:16:19.543Z,6.20
2017-06-11T21:18:47.044Z,4.80
2017-06-11T21:21:14.581Z,8.95
2017-06-11T21:23:42.090Z,5.05
2017-06-11T21:26:10.358Z,5.12
2017-06-11T21:28:38.651Z,6.72
2017-06-11T21:31:06.930Z,8.05
2017-06-11T21:33:34.443Z,5.85
2017-06-11T21:36:01.989Z,5.87
2017-06-11T21:38:29.497Z,5.20
2017-06-11T21:40:57.755Z,4.75
2017-06-11T21:43:25.275Z,6.70
2017-06-11T21:45:52.791Z,6.72
2017-06-11T21:48:20.326Z,5.03
2017-06-11T21:50:47.829Z,5.80
2017-06-11T21:53:15.342Z,6.82
2017-06-11T21:55:42.889Z,6.82
2017-06-11T21:58:10.423Z,8.25
2017-06-11T22:00:37.953Z,7.75
2017-06-11T22:03:05.490Z,12.82
2017-06-11T22:05:32.998Z,12.45
2017-06-11T22:08:00.490Z,8.77
2017-06-11T22:10:28.008Z,7.22
2017-06-11T22:12:55.515Z,6.30
2017-06-11T22:15:23.034Z,6.90
2017-06-11T22:17:50.583Z,7.28
2017-06-11T22:20:18.103Z,6.95
2017-06-11T22:22:45.708Z,6.32
2017-06-11T22:25:13.251Z,7.62
2017-06-11T22:27:40.887Z,7.28
2017-06-11T22:30:08.586Z,6.30
2017-06-11T22:32:36.106Z,7.40
2017-06-11T22:35:03.622Z,7.12
2017-06-11T22:37:31.131Z,7.40
2017-06-11T22:39:58.810Z,7.65
2017-06-11T22:42:27.109Z,10.07
2017-06-11T22:44:54.633Z,9.15
2017-06-11T22:47:22.163Z,11.00
2017-06-11T22:49:49.672Z,8.05
2017-06-11T22:52:17.931Z,7.87
2017-06-11T22:54:45.416Z,7.95
2017-06-11T22:57:13.029Z,9.68
2017-06-11T22:59:40.539Z,8.05
2017-06-11T23:02:08.053Z,9.18
2017-06-11T23:04:35.578Z,8.45
2017-06-11T23:07:03.082Z,7.95
2017-06-11T23:09:30.624Z,7.68
2017-06-11T23:11:58.263Z,9.45
2017-06-11T23:14:25.813Z,9.68
2017-06-11T23:16:53.412Z,8.13
2017-06-11T23:19:20.952Z,8.30
2017-06-11T23:21:48.450Z,7.65
2017-06-11T23:24:16.030Z,8.50
2017-06-11T23:26:43.577Z,7.57
2017-06-11T23:29:11.859Z,9.68
2017-06-11T23:31:40.129Z,9.38
2017-06-11T23:34:08.456Z,8.15
2017-06-11T23:36:35.961Z,6.70
2017-06-11T23:39:03.474Z,7.68
2017-06-11T23:41:30.999Z,7.45
2017-06-11T23:43:59.277Z,7.87
2017-06-11T23:46:27.534Z,8.25
2017-06-11T23:48:55.045Z,7.20
2017-06-11T23:51:23.355Z,7.57
2017-06-11T23:53:50.872Z,8.48
2017-06-11T23:56:18.378Z,8.15
2017-06-11T23:58:45.889Z,8.82
